Time;durP1;ratioP1;P1;durP2;ratioP2;P2;SDS_P1;SDS_P2;PMS_P1;PMS_P2;Temp;Humidity;BMP_temperature;BMP_pressure;BME280_temperature;BME280_humidity;BME280_pressure;Samples;Min_cycle;Max_cycle;Signal;HPM_P1;HPM_P2
2022/10/16 01:47:33;;;;;;;17.13;16.23;;;16.10;99.90;;;;;;5790870;23;21008;-74
2022/10/16 01:50:04;;;;;;;18.23;16.53;;;16.00;99.90;;;;;;4986444;28;20492;-72
2022/10/16 01:52:34;;;;;;;16.40;15.70;;;16.00;99.90;;;;;;4991942;28;20459;-73
2022/10/16 01:55:04;;;;;;;17.57;16.20;;;16.00;99.90;;;;;;4991819;28;20454;-72
2022/10/16 01:57:34;;;;;;;16.23;15.43;;;15.90;99.90;;;;;;4991576;28;20781;-72
2022/10/16 02:00:07;;;;;;;17.23;16.07;;;16.00;99.90;;;;;;4991531;28;20465;-72
2022/10/16 02:02:35;;;;;;;16.63;15.93;;;16.00;99.90;;;;;;4991406;28;20533;-72
2022/10/16 02:05:11;;;;;;;17.50;16.33;;;16.00;99.90;;;;;;4991549;28;20457;-72
2022/10/16 02:07:38;;;;;;;16.93;16.13;;;16.00;99.90;;;;;;4991724;28;20458;-72
2022/10/16 02:10:05;;;;;;;16.67;15.80;;;16.00;99.90;;;;;;4991333;28;20454;-72
2022/10/16 02:12:36;;;;;;;17.73;16.93;;;16.10;99.90;;;;;;4991410;28;20454;-73
2022/10/16 02:15:03;;;;;;;16.10;15.40;;;16.00;99.90;;;;;;4991337;28;20443;-73
2022/10/16 02:17:30;;;;;;;17.10;16.30;;;16.10;99.90;;;;;;4991427;28;20451;-73
2022/10/16 02:20:00;;;;;;;18.00;17.00;;;16.10;99.90;;;;;;4991019;28;20450;-73
2022/10/16 02:22:30;;;;;;;16.87;16.00;;;16.10;99.90;;;;;;4991361;28;20465;-73
2022/10/16 02:25:03;;;;;;;17.60;16.37;;;16.10;99.90;;;;;;4991231;28;20451;-73
2022/10/16 02:27:35;;;;;;;16.87;15.97;;;16.10;99.90;;;;;;4991315;28;20482;-73
2022/10/16 02:30:08;;;;;;;17.60;16.60;;;16.00;99.90;;;;;;4991178;28;20545;-73
2022/10/16 02:32:36;;;;;;;17.20;16.20;;;16.10;99.90;;;;;;4990518;28;20554;-74
2022/10/16 02:35:05;;;;;;;16.00;15.13;;;16.10;99.90;;;;;;4990644;28;20454;-73
2022/10/16 02:37:33;;;;;;;16.00;15.10;;;16.10;99.90;;;;;;4990609;28;21145;-73
2022/10/16 02:40:01;;;;;;;15.33;14.30;;;16.10;99.90;;;;;;4990922;28;20513;-74
2022/10/16 02:42:34;;;;;;;16.83;15.90;;;16.00;99.90;;;;;;4990867;28;20501;-74
2022/10/16 02:45:01;;;;;;;17.80;16.60;;;16.00;99.90;;;;;;4991163;28;20815;-74
2022/10/16 02:47:27;;;;;;;16.60;15.90;;;16.10;99.90;;;;;;4990388;28;20498;-74
2022/10/16 02:49:54;;;;;;;17.67;16.77;;;16.10;99.90;;;;;;4990126;28;20486;-73
2022/10/16 02:52:23;;;;;;;17.20;16.30;;;16.00;99.90;;;;;;4990616;28;20465;-73
2022/10/16 02:54:49;;;;;;;17.17;16.07;;;16.00;99.90;;;;;;4990480;28;20454;-73
2022/10/16 02:57:16;;;;;;;16.00;15.20;;;16.00;99.90;;;;;;4990693;28;20809;-74
2022/10/16 02:59:43;;;;;;;17.13;16.03;;;16.00;99.90;;;;;;4990604;28;20451;-73
2022/10/16 03:02:09;;;;;;;16.50;15.43;;;16.00;99.90;;;;;;4990404;28;20476;-75
2022/10/16 03:04:36;;;;;;;18.03;16.60;;;16.00;99.90;;;;;;4990510;28;20929;-74
2022/10/16 03:07:03;;;;;;;18.17;16.70;;;16.00;99.90;;;;;;4990360;28;20996;-74
2022/10/16 03:09:31;;;;;;;17.23;16.33;;;16.00;99.90;;;;;;4990565;28;20455;-72
2022/10/16 03:11:58;;;;;;;16.60;15.90;;;16.00;99.90;;;;;;4990284;28;20451;-72
2022/10/16 03:14:25;;;;;;;15.90;15.30;;;16.00;99.90;;;;;;4990226;28;20451;-72
2022/10/16 03:16:52;;;;;;;16.07;15.27;;;16.00;99.90;;;;;;4990322;28;20912;-75
2022/10/16 03:19:19;;;;;;;17.03;15.60;;;15.90;99.90;;;;;;4990144;28;20451;-72
2022/10/16 03:21:46;;;;;;;17.10;15.97;;;15.90;99.90;;;;;;4990351;28;20841;-72
2022/10/16 03:24:12;;;;;;;17.10;16.30;;;15.90;99.90;;;;;;4990121;28;20480;-72
2022/10/16 03:26:40;;;;;;;17.90;16.73;;;16.00;99.90;;;;;;4989547;28;20517;-72
2022/10/16 03:29:07;;;;;;;16.97;16.07;;;16.00;99.90;;;;;;4990073;28;20474;-72
2022/10/16 03:31:34;;;;;;;16.97;15.97;;;16.00;99.90;;;;;;4989980;28;20443;-71
2022/10/16 03:34:01;;;;;;;16.67;15.97;;;15.90;99.90;;;;;;4990117;28;20929;-72
2022/10/16 03:36:27;;;;;;;17.27;16.37;;;15.90;99.90;;;;;;4990119;28;20447;-72
2022/10/16 03:38:54;;;;;;;16.93;15.70;;;15.90;99.90;;;;;;4986965;28;20539;-72
2022/10/16 03:41:21;;;;;;;17.20;16.00;;;15.90;99.90;;;;;;4989247;28;20459;-73
2022/10/16 03:43:49;;;;;;;17.00;16.10;;;15.90;99.90;;;;;;4989769;28;20790;-72
2022/10/16 03:46:16;;;;;;;18.20;16.73;;;15.90;99.90;;;;;;4989553;28;21018;-71
2022/10/16 03:48:42;;;;;;;16.73;15.83;;;15.90;99.90;;;;;;4989148;28;20471;-72
2022/10/16 03:51:09;;;;;;;18.03;16.93;;;15.90;99.90;;;;;;4989455;28;20461;-75
2022/10/16 03:53:36;;;;;;;20.93;18.00;;;15.90;99.90;;;;;;4989171;28;20820;-72
2022/10/16 03:56:02;;;;;;;17.90;16.53;;;15.90;99.90;;;;;;4989195;28;20458;-74
2022/10/16 03:58:29;;;;;;;17.43;16.43;;;15.90;99.90;;;;;;4989775;28;20459;-74
2022/10/16 04:00:57;;;;;;;18.17;17.27;;;15.90;99.90;;;;;;4989301;28;20454;-74
2022/10/16 04:03:24;;;;;;;17.00;16.20;;;15.80;99.90;;;;;;4989077;28;20590;-73
2022/10/16 04:05:51;;;;;;;17.30;16.50;;;15.70;99.90;;;;;;4989207;28;20562;-74
2022/10/16 04:08:18;;;;;;;16.80;16.00;;;15.70;99.90;;;;;;4989293;28;20459;-73
2022/10/16 04:10:44;;;;;;;17.23;16.30;;;15.70;99.90;;;;;;4989503;28;20476;-73
2022/10/16 04:13:11;;;;;;;17.57;16.60;;;15.70;99.90;;;;;;4988999;28;20458;-74
2022/10/16 04:15:38;;;;;;;17.73;16.43;;;15.70;99.90;;;;;;4989354;28;20459;-74
2022/10/16 04:18:07;;;;;;;17.17;16.30;;;15.70;99.90;;;;;;4988978;28;20459;-74
2022/10/16 04:20:33;;;;;;;17.30;16.50;;;15.60;99.90;;;;;;4989103;28;20925;-75
2022/10/16 04:23:00;;;;;;;17.77;16.80;;;15.60;99.90;;;;;;4989132;28;20443;-75
2022/10/16 04:25:27;;;;;;;17.87;16.67;;;15.60;99.90;;;;;;4988992;28;20493;-75
2022/10/16 04:27:54;;;;;;;17.10;16.30;;;15.60;99.90;;;;;;4988794;28;20517;-75
2022/10/16 04:30:21;;;;;;;16.73;15.93;;;15.60;99.90;;;;;;4988932;28;20941;-75
2022/10/16 04:32:49;;;;;;;15.93;15.23;;;15.60;99.90;;;;;;4989060;28;20887;-75
2022/10/16 04:35:17;;;;;;;16.80;16.00;;;15.60;99.90;;;;;;4989449;28;20462;-75
2022/10/16 04:37:44;;;;;;;18.10;16.87;;;15.60;99.90;;;;;;4989190;28;20454;-75
2022/10/16 04:40:11;;;;;;;17.17;16.47;;;15.60;99.90;;;;;;4989044;28;20451;-74
2022/10/16 04:42:38;;;;;;;17.20;16.30;;;15.60;99.90;;;;;;4988870;28;20663;-74
2022/10/16 04:45:06;;;;;;;16.40;15.70;;;15.60;99.90;;;;;;4988619;28;20457;-75
2022/10/16 04:47:33;;;;;;;16.50;15.70;;;15.60;99.90;;;;;;4988571;28;20490;-75
2022/10/16 04:50:02;;;;;;;17.67;16.53;;;15.60;99.90;;;;;;4988903;28;20486;-74
2022/10/16 04:52:31;;;;;;;16.83;16.13;;;15.60;99.90;;;;;;4988970;28;20927;-75
2022/10/16 04:55:01;;;;;;;17.30;16.30;;;15.60;99.90;;;;;;4988937;28;20949;-75
2022/10/16 04:57:27;;;;;;;16.93;16.03;;;15.70;99.90;;;;;;4988748;28;20478;-75
2022/10/16 04:59:54;;;;;;;16.50;15.80;;;15.70;99.90;;;;;;4988678;28;20447;-74
2022/10/16 05:02:21;;;;;;;17.43;16.73;;;15.80;99.90;;;;;;4988485;28;20466;-74
2022/10/16 05:04:48;;;;;;;17.13;16.33;;;15.80;99.90;;;;;;4988679;28;20459;-74
2022/10/16 05:07:14;;;;;;;17.80;16.90;;;15.80;99.90;;;;;;4988723;28;20513;-74
2022/10/16 05:09:42;;;;;;;18.40;17.53;;;15.80;99.90;;;;;;4992246;28;20455;-74
2022/10/16 05:12:09;;;;;;;18.80;17.60;;;15.80;99.90;;;;;;4992450;28;20443;-74
2022/10/16 05:14:36;;;;;;;17.37;16.47;;;15.80;99.90;;;;;;4992527;28;20531;-74
2022/10/16 05:17:03;;;;;;;17.63;16.60;;;15.90;99.90;;;;;;4992668;28;20461;-74
2022/10/16 05:19:29;;;;;;;16.97;16.27;;;15.90;99.90;;;;;;4992614;28;20446;-74
2022/10/16 05:21:56;;;;;;;17.83;16.60;;;15.90;99.90;;;;;;4992213;28;20457;-74
2022/10/16 05:24:23;;;;;;;18.10;16.80;;;15.80;99.90;;;;;;4992272;28;20465;-76
2022/10/16 05:26:52;;;;;;;17.10;16.27;;;15.70;99.90;;;;;;4991923;28;21034;-75
2022/10/16 05:29:19;;;;;;;16.67;15.97;;;15.70;99.90;;;;;;4992107;28;20462;-75
2022/10/16 05:31:45;;;;;;;16.27;15.10;;;15.70;99.90;;;;;;4992314;28;20490;-73
2022/10/16 05:34:12;;;;;;;17.43;16.73;;;15.60;99.90;;;;;;4992211;28;20451;-76
2022/10/16 05:36:39;;;;;;;16.93;16.03;;;15.60;99.90;;;;;;4991838;28;20819;-74
2022/10/16 05:39:06;;;;;;;17.50;16.50;;;15.60;99.90;;;;;;4991689;28;20450;-74
2022/10/16 05:41:32;;;;;;;17.90;16.53;;;15.50;99.90;;;;;;4991910;28;20801;-74
2022/10/16 05:44:00;;;;;;;17.20;16.00;;;15.50;99.90;;;;;;4992024;28;20539;-74
2022/10/16 05:46:27;;;;;;;16.40;15.60;;;15.40;99.90;;;;;;4991638;28;20960;-75
2022/10/16 05:48:54;;;;;;;17.60;16.50;;;15.40;99.90;;;;;;4991649;28;20839;-74
2022/10/16 05:51:20;;;;;;;17.90;17.00;;;15.30;99.90;;;;;;4991650;28;20933;-74
2022/10/16 05:53:47;;;;;;;18.10;17.20;;;15.30;99.90;;;;;;4991677;28;20966;-74
2022/10/16 05:56:14;;;;;;;17.93;16.77;;;15.40;99.90;;;;;;4991892;28;21058;-74
2022/10/16 05:58:41;;;;;;;18.60;17.43;;;15.40;99.90;;;;;;4991598;28;20453;-74
2022/10/16 06:01:12;;;;;;;18.90;17.60;;;15.40;99.90;;;;;;4991438;28;20576;-75
2022/10/16 06:03:39;;;;;;;16.77;16.00;;;15.40;99.90;;;;;;4991413;28;20944;-75
2022/10/16 06:06:10;;;;;;;17.43;16.43;;;15.50;99.90;;;;;;4991387;28;20494;-74
2022/10/16 06:08:37;;;;;;;17.67;16.80;;;15.50;99.90;;;;;;4991331;28;20532;-75
2022/10/16 06:11:05;;;;;;;18.00;17.03;;;15.60;99.90;;;;;;4991407;28;20466;-74
2022/10/16 06:13:32;;;;;;;18.50;17.43;;;15.70;99.90;;;;;;4991399;28;20502;-73
2022/10/16 06:16:00;;;;;;;18.77;17.53;;;15.60;99.90;;;;;;4991474;28;20451;-74
2022/10/16 06:18:29;;;;;;;18.20;16.97;;;15.70;99.90;;;;;;4990840;28;20454;-74
2022/10/16 06:20:57;;;;;;;18.80;17.90;;;15.80;99.90;;;;;;4991227;28;20820;-74
2022/10/16 06:23:24;;;;;;;18.57;17.57;;;15.80;99.90;;;;;;4991027;28;20455;-74
2022/10/16 06:25:51;;;;;;;20.00;19.03;;;15.90;99.90;;;;;;4991152;28;20476;-75
2022/10/16 06:28:18;;;;;;;18.37;17.47;;;16.00;99.90;;;;;;4991195;28;20486;-75
2022/10/16 06:30:45;;;;;;;17.53;16.60;;;16.10;99.90;;;;;;4991279;28;20454;-75
2022/10/16 06:33:12;;;;;;;17.50;16.20;;;16.00;99.90;;;;;;4990983;28;20466;-75
2022/10/16 06:35:40;;;;;;;18.30;17.40;;;16.00;99.90;;;;;;4990629;28;20824;-74
2022/10/16 06:38:07;;;;;;;18.30;17.47;;;16.00;99.90;;;;;;4990662;28;20446;-74
2022/10/16 06:40:34;;;;;;;19.70;18.80;;;16.10;99.90;;;;;;4990810;28;20917;-74
2022/10/16 06:43:00;;;;;;;18.47;16.90;;;16.10;99.90;;;;;;4991300;28;20455;-75
2022/10/16 06:45:27;;;;;;;19.67;18.57;;;16.10;99.90;;;;;;4990496;28;20447;-75
2022/10/16 06:47:54;;;;;;;18.40;17.30;;;16.20;99.90;;;;;;4990261;28;20497;-75
2022/10/16 06:50:20;;;;;;;16.33;15.50;;;16.30;99.90;;;;;;4990498;28;20462;-74
2022/10/16 06:52:48;;;;;;;16.23;15.50;;;16.50;99.90;;;;;;4990663;28;20484;-74
2022/10/16 06:55:16;;;;;;;16.50;15.67;;;16.70;99.90;;;;;;4990657;28;20984;-73
2022/10/16 06:57:43;;;;;;;16.30;15.43;;;16.90;99.90;;;;;;4989468;28;20505;-74
2022/10/16 07:00:11;;;;;;;18.67;17.30;;;17.10;99.90;;;;;;4979399;28;20447;-74
2022/10/16 07:02:37;;;;;;;16.93;16.10;;;17.10;99.90;;;;;;4983656;28;20471;-73
2022/10/16 07:05:05;;;;;;;17.90;17.10;;;17.00;99.90;;;;;;4977586;28;20447;-74
2022/10/16 07:07:31;;;;;;;17.90;16.77;;;17.00;99.90;;;;;;4978379;28;20478;-74
2022/10/16 07:09:59;;;;;;;16.43;15.53;;;17.00;99.90;;;;;;4980150;28;20812;-74
2022/10/16 07:12:26;;;;;;;18.20;17.20;;;16.90;99.90;;;;;;4974817;28;20463;-74
2022/10/16 07:14:54;;;;;;;17.80;16.70;;;17.00;99.90;;;;;;4980826;28;20455;-74
2022/10/16 07:17:21;;;;;;;16.73;15.93;;;17.10;99.90;;;;;;4977521;28;20988;-73
2022/10/16 07:19:48;;;;;;;17.20;16.40;;;17.20;99.90;;;;;;4978115;28;20444;-73
2022/10/16 07:22:14;;;;;;;17.03;15.77;;;17.30;99.90;;;;;;4979711;28;20780;-73
2022/10/16 07:24:41;;;;;;;16.93;16.03;;;17.60;99.90;;;;;;4979174;28;20447;-73
2022/10/16 07:27:09;;;;;;;17.40;16.40;;;17.80;99.90;;;;;;4977615;28;20571;-75
2022/10/16 07:29:36;;;;;;;15.90;15.00;;;17.80;99.90;;;;;;4983160;28;20474;-75
2022/10/16 07:32:03;;;;;;;16.63;15.60;;;17.80;99.90;;;;;;4988548;28;20470;-74
2022/10/16 07:34:30;;;;;;;17.00;16.20;;;17.70;99.90;;;;;;4989209;28;20482;-75
2022/10/16 07:36:56;;;;;;;15.43;14.70;;;17.50;99.90;;;;;;4988494;28;20562;-75
2022/10/16 07:39:23;;;;;;;17.40;16.50;;;17.50;99.90;;;;;;4988575;28;20462;-74
2022/10/16 07:41:50;;;;;;;16.77;15.77;;;17.50;99.90;;;;;;4988828;28;20481;-74
2022/10/16 07:44:18;;;;;;;16.60;15.80;;;17.60;99.90;;;;;;4989036;28;20455;-75
2022/10/16 07:46:45;;;;;;;16.70;15.60;;;17.50;99.90;;;;;;4988894;28;20477;-74
2022/10/16 07:49:11;;;;;;;16.53;15.63;;;17.50;99.90;;;;;;4988500;28;20494;-74
2022/10/16 07:51:39;;;;;;;16.47;15.63;;;17.50;99.90;;;;;;4988683;28;20455;-75
2022/10/16 07:54:05;;;;;;;15.87;15.17;;;17.40;99.90;;;;;;4976617;28;20464;-74
2022/10/16 07:56:33;;;;;;;15.03;14.33;;;17.40;99.90;;;;;;4984767;28;20451;-74
2022/10/16 07:58:59;;;;;;;15.33;14.53;;;17.50;99.90;;;;;;4969246;28;20512;-74
2022/10/16 08:01:28;;;;;;;15.33;14.53;;;17.60;99.90;;;;;;4974381;28;20870;-73
2022/10/16 08:03:54;;;;;;;15.10;14.30;;;17.90;99.90;;;;;;4978011;28;20440;-73
2022/10/16 08:06:22;;;;;;;15.53;14.70;;;18.00;99.90;;;;;;4978587;28;20455;-73
2022/10/16 08:08:49;;;;;;;15.50;14.50;;;17.80;99.90;;;;;;4979221;28;20977;-73
2022/10/16 08:11:16;;;;;;;15.43;14.73;;;17.70;99.90;;;;;;4978598;28;20947;-73
2022/10/16 08:13:42;;;;;;;14.57;13.97;;;17.60;99.90;;;;;;4978420;28;20451;-74
2022/10/16 08:16:09;;;;;;;14.90;14.30;;;17.60;99.90;;;;;;4977029;28;20462;-73
2022/10/16 08:18:39;;;;;;;15.03;14.33;;;17.60;99.90;;;;;;4977907;28;20451;-74
2022/10/16 08:21:07;;;;;;;13.97;13.27;;;17.80;99.90;;;;;;4978577;28;20569;-74
2022/10/16 08:23:34;;;;;;;14.80;14.00;;;18.00;99.90;;;;;;4977275;28;20470;-73
2022/10/16 08:26:04;;;;;;;14.53;13.83;;;18.10;99.90;;;;;;4977901;28;20443;-72
2022/10/16 08:28:31;;;;;;;14.13;13.33;;;18.10;99.90;;;;;;4977165;28;20482;-73
2022/10/16 08:31:05;;;;;;;13.97;13.17;;;18.50;99.90;;;;;;4978415;28;20454;-73
2022/10/16 08:33:31;;;;;;;13.70;13.10;;;19.20;99.90;;;;;;4979243;28;20451;-73
2022/10/16 08:35:59;;;;;;;13.27;12.70;;;19.40;99.90;;;;;;4980288;28;20446;-74
2022/10/16 08:38:26;;;;;;;13.77;12.87;;;19.50;99.90;;;;;;4969870;28;20909;-74
2022/10/16 08:40:55;;;;;;;12.60;12.10;;;19.60;99.90;;;;;;4977467;28;20788;-74
2022/10/16 08:43:37;;;;;;;11.50;11.10;;;20.10;99.90;;;;;;4977519;28;20779;-75
2022/10/16 08:46:28;;;;;;;11.37;10.87;;;20.60;99.90;;;;;;4974162;28;20829;-74
2022/10/16 08:48:57;;;;;;;12.03;11.63;;;20.90;99.90;;;;;;4979316;28;20503;-75
2022/10/16 08:51:28;;;;;;;11.97;11.33;;;20.80;99.90;;;;;;4977344;28;20506;-74
2022/10/16 08:53:58;;;;;;;12.13;11.50;;;20.50;99.90;;;;;;4978826;28;20448;-74
2022/10/16 08:56:26;;;;;;;12.80;12.23;;;20.40;99.90;;;;;;4976757;28;20450;-74
2022/10/16 08:58:54;;;;;;;11.80;11.30;;;20.40;99.90;;;;;;4979052;28;20447;-73
2022/10/16 09:01:23;;;;;;;11.90;11.40;;;20.40;99.90;;;;;;4978860;28;20975;-74
2022/10/16 09:04:08;;;;;;;12.23;11.63;;;20.20;99.90;;;;;;4980750;28;20451;-74
2022/10/16 09:06:47;;;;;;;12.37;11.37;;;20.10;99.90;;;;;;4979070;28;20443;-74
2022/10/16 09:09:27;;;;;;;12.03;11.37;;;20.20;99.90;;;;;;4978266;28;20479;-74
2022/10/16 09:12:01;;;;;;;11.50;11.00;;;20.20;99.90;;;;;;4978742;28;20447;-74
2022/10/16 09:14:45;;;;;;;12.10;11.63;;;20.30;99.90;;;;;;4979093;28;20942;-74
2022/10/16 09:17:24;;;;;;;11.97;11.30;;;20.40;99.90;;;;;;4978871;28;21256;-74
2022/10/16 09:19:56;;;;;;;12.10;11.60;;;20.40;99.90;;;;;;4979342;28;20450;-74
2022/10/16 09:22:28;;;;;;;11.60;10.70;;;20.50;99.90;;;;;;4978815;28;20475;-75
2022/10/16 09:24:56;;;;;;;11.57;11.17;;;20.80;99.90;;;;;;4977961;28;20483;-75
2022/10/16 09:27:22;;;;;;;10.77;10.37;;;20.90;99.90;;;;;;4976961;28;20463;-73
2022/10/16 09:29:49;;;;;;;11.63;11.23;;;21.10;99.90;;;;;;4978584;28;20505;-75
2022/10/16 09:32:20;;;;;;;11.77;11.20;;;21.40;99.90;;;;;;4978494;28;20783;-75
2022/10/16 09:34:50;;;;;;;11.67;11.07;;;21.20;99.90;;;;;;4979216;28;20442;-75
2022/10/16 09:37:20;;;;;;;12.03;11.03;;;21.20;99.90;;;;;;4976405;28;20450;-74
2022/10/16 09:39:49;;;;;;;10.90;10.50;;;21.10;99.90;;;;;;4978940;28;20791;-75
2022/10/16 09:42:18;;;;;;;10.83;10.43;;;21.30;99.90;;;;;;4978189;28;20456;-73
2022/10/16 09:44:49;;;;;;;11.07;10.57;;;22.40;99.90;;;;;;4976664;28;20455;-72
2022/10/16 09:47:19;;;;;;;12.03;11.30;;;23.80;99.90;;;;;;4977218;28;20466;-73
2022/10/16 09:49:58;;;;;;;11.43;10.83;;;23.70;99.90;;;;;;4978776;28;20490;-72
2022/10/16 09:52:25;;;;;;;11.27;10.77;;;23.10;99.90;;;;;;4978655;28;20481;-75
2022/10/16 09:54:55;;;;;;;11.07;10.57;;;22.80;99.90;;;;;;4978862;28;20439;-74
2022/10/16 09:57:23;;;;;;;11.53;10.93;;;23.20;99.90;;;;;;4982142;28;20897;-74
2022/10/16 09:59:52;;;;;;;11.40;10.80;;;23.80;99.90;;;;;;4980532;28;20458;-73
2022/10/16 10:02:24;;;;;;;11.87;11.03;;;24.10;99.90;;;;;;4980617;28;20525;-72
2022/10/16 10:04:54;;;;;;;11.27;10.47;;;23.60;99.90;;;;;;4982047;28;20443;-72
2022/10/16 10:07:37;;;;;;;11.30;10.43;;;23.20;99.90;;;;;;4981928;28;20451;-72
2022/10/16 10:10:07;;;;;;;10.47;10.07;;;23.20;99.90;;;;;;4979291;28;20524;-73
2022/10/16 10:12:36;;;;;;;11.07;10.63;;;23.50;99.90;;;;;;4982093;28;20458;-72
2022/10/16 10:15:07;;;;;;;11.43;10.70;;;23.90;99.90;;;;;;4979200;28;20458;-72
2022/10/16 10:17:34;;;;;;;10.60;10.20;;;24.10;99.90;;;;;;4981210;28;20459;-71
2022/10/16 10:20:12;;;;;;;11.67;11.07;;;24.20;99.90;;;;;;4980332;28;20863;-73
2022/10/16 10:22:45;;;;;;;11.73;10.93;;;24.40;99.90;;;;;;4980911;28;20854;-72
2022/10/16 10:25:39;;;;;;;10.93;10.40;;;24.50;99.90;;;;;;4980986;28;20455;-72
2022/10/16 10:28:25;;;;;;;11.00;10.60;;;24.50;99.90;;;;;;4980241;28;21000;-72
2022/10/16 10:30:59;;;;;;;11.80;11.27;;;24.80;99.90;;;;;;4980449;28;20470;-72
2022/10/16 10:33:32;;;;;;;12.40;11.90;;;24.80;99.90;;;;;;4980872;28;20442;-72
2022/10/16 10:36:10;;;;;;;11.70;11.30;;;24.80;99.90;;;;;;4980934;28;20459;-72
2022/10/16 10:38:46;;;;;;;11.40;11.00;;;24.90;99.90;;;;;;4980515;28;20431;-72
2022/10/16 10:41:42;;;;;;;12.70;11.93;;;25.00;99.90;;;;;;4979841;28;20468;-72
2022/10/16 10:44:18;;;;;;;11.00;10.50;;;25.50;99.90;;;;;;4980431;28;20459;-73
2022/10/16 10:46:51;;;;;;;12.07;11.67;;;25.80;99.90;;;;;;4978992;28;20590;-72
2022/10/16 10:49:40;;;;;;;11.50;11.10;;;25.70;99.90;;;;;;4978545;28;21020;-72
2022/10/16 10:52:25;;;;;;;11.20;10.70;;;26.00;99.90;;;;;;4980179;28;20439;-73
2022/10/16 10:55:00;;;;;;;12.77;12.10;;;26.10;99.70;;;;;;4980245;28;20810;-73
2022/10/16 10:57:36;;;;;;;11.70;11.00;;;26.90;98.70;;;;;;4980308;28;20442;-73
2022/10/16 11:00:21;;;;;;;11.33;10.93;;;27.70;96.60;;;;;;4980401;28;20438;-73
2022/10/16 11:02:55;;;;;;;11.20;10.80;;;28.60;94.50;;;;;;4981362;28;20453;-75
2022/10/16 11:05:34;;;;;;;12.00;11.50;;;29.40;92.30;;;;;;4988638;28;20455;-75
2022/10/16 11:08:04;;;;;;;11.90;11.30;;;30.10;90.60;;;;;;4990350;28;20465;-74
2022/10/16 11:10:39;;;;;;;12.37;11.77;;;30.60;89.40;;;;;;4990739;28;20447;-75
2022/10/16 11:13:16;;;;;;;12.63;11.93;;;31.80;84.60;;;;;;4990434;28;20453;-75
2022/10/16 11:15:45;;;;;;;12.40;12.00;;;31.00;80.40;;;;;;4990237;28;20458;-75
2022/10/16 11:18:18;;;;;;;12.50;11.80;;;30.20;83.30;;;;;;4990238;28;20616;-75
2022/10/16 11:20:49;;;;;;;12.20;11.80;;;30.30;84.50;;;;;;4978186;28;20449;-74
2022/10/16 11:23:24;;;;;;;12.30;11.50;;;29.70;84.10;;;;;;4970999;28;20456;-74
2022/10/16 11:25:53;;;;;;;12.33;11.73;;;29.10;85.80;;;;;;4970851;28;20458;-74
2022/10/16 11:28:25;;;;;;;11.93;11.43;;;28.70;86.50;;;;;;4970517;28;20816;-74
2022/10/16 11:30:56;;;;;;;11.67;11.27;;;27.70;89.90;;;;;;4970768;28;20480;-74
2022/10/16 11:33:34;;;;;;;11.70;11.30;;;27.20;90.50;;;;;;4970731;28;20452;-75
2022/10/16 11:36:09;;;;;;;11.60;11.10;;;28.00;90.50;;;;;;4970855;28;21052;-75
2022/10/16 11:38:42;;;;;;;12.03;11.43;;;29.30;85.20;;;;;;4970526;28;20910;-75
2022/10/16 11:41:19;;;;;;;12.30;11.80;;;30.50;81.60;;;;;;4970367;28;20460;-73
2022/10/16 11:43:54;;;;;;;12.67;12.17;;;30.90;79.60;;;;;;4970765;28;20451;-74
2022/10/16 11:46:24;;;;;;;12.67;12.20;;;30.60;80.00;;;;;;4970095;28;20463;-73
2022/10/16 11:48:56;;;;;;;12.30;11.90;;;31.10;78.50;;;;;;4970175;28;20501;-73
2022/10/16 11:51:32;;;;;;;13.37;12.57;;;30.30;80.00;;;;;;4970467;28;20444;-74
2022/10/16 11:54:04;;;;;;;12.30;11.87;;;30.30;80.30;;;;;;4970472;28;20447;-73
2022/10/16 11:56:33;;;;;;;13.83;12.50;;;30.10;80.20;;;;;;4970377;28;20470;-73
2022/10/16 11:59:06;;;;;;;12.50;12.00;;;30.30;79.30;;;;;;4970392;28;20454;-73
2022/10/16 12:01:38;;;;;;;12.50;12.10;;;30.60;78.60;;;;;;4970023;28;20452;-72
2022/10/16 12:04:19;;;;;;;12.90;12.40;;;30.10;78.40;;;;;;4975780;28;20536;-73
2022/10/16 12:06:51;;;;;;;11.60;11.10;;;29.80;79.80;;;;;;4973739;28;20551;-73
2022/10/16 12:09:25;;;;;;;12.57;11.83;;;29.90;79.30;;;;;;4976908;28;20483;-72
2022/10/16 12:11:52;;;;;;;12.60;11.87;;;30.70;78.60;;;;;;4977398;28;20454;-72
2022/10/16 12:14:34;;;;;;;12.40;12.00;;;31.50;75.20;;;;;;4976964;28;20444;-73
2022/10/16 12:17:05;;;;;;;12.53;12.03;;;31.20;74.30;;;;;;4972860;28;20950;-72
2022/10/16 12:19:33;;;;;;;12.90;12.00;;;31.50;74.00;;;;;;4969961;28;20456;-73
2022/10/16 12:22:02;;;;;;;12.83;12.23;;;31.40;73.70;;;;;;4969480;28;20836;-73
2022/10/16 12:24:34;;;;;;;13.27;12.33;;;31.60;72.40;;;;;;4969917;28;20906;-72
2022/10/16 12:27:02;;;;;;;13.20;12.70;;;31.60;71.10;;;;;;4975144;28;20462;-73
2022/10/16 12:29:38;;;;;;;12.57;11.97;;;32.20;71.10;;;;;;4982943;28;20493;-72
2022/10/16 12:32:08;;;;;;;12.50;11.90;;;32.40;69.00;;;;;;4971617;28;20458;-74
2022/10/16 12:34:40;;;;;;;13.60;12.90;;;32.60;68.30;;;;;;4972120;28;20447;-73
2022/10/16 12:37:15;;;;;;;13.07;12.50;;;32.80;67.80;;;;;;4988413;28;20451;-74
2022/10/16 12:39:42;;;;;;;13.57;13.07;;;33.10;67.10;;;;;;4988525;28;20449;-74
2022/10/16 12:42:23;;;;;;;13.10;12.70;;;33.30;65.90;;;;;;4988255;28;20642;-74
2022/10/16 12:44:51;;;;;;;13.00;12.60;;;33.40;64.20;;;;;;4971570;28;20459;-73
2022/10/16 12:47:24;;;;;;;12.77;12.27;;;32.70;65.70;;;;;;4968687;28;20474;-74
2022/10/16 12:49:53;;;;;;;13.33;12.57;;;31.90;67.30;;;;;;4968687;28;20856;-74
2022/10/16 12:52:35;;;;;;;13.13;12.60;;;32.20;67.30;;;;;;4968310;28;20574;-72
2022/10/16 12:55:02;;;;;;;12.30;11.90;;;32.00;67.00;;;;;;4968824;28;20451;-75
2022/10/16 12:57:42;;;;;;;12.50;12.10;;;31.50;69.00;;;;;;4969055;28;20444;-74
2022/10/16 13:00:21;;;;;;;12.70;12.10;;;30.20;71.10;;;;;;4971526;28;20493;-74
2022/10/16 13:03:25;;;;;;;13.07;12.57;;;29.70;73.00;;;;;;4988303;28;20455;-75
2022/10/16 13:06:07;;;;;;;12.43;11.93;;;29.00;74.10;;;;;;4988236;28;20458;-72
2022/10/16 13:08:50;;;;;;;12.73;11.83;;;28.10;77.10;;;;;;4987616;28;20459;-73
2022/10/16 13:11:24;;;;;;;11.10;10.70;;;27.50;79.20;;;;;;4987980;28;20462;-73
2022/10/16 13:14:15;;;;;;;12.30;11.80;;;27.20;81.10;;;;;;4988121;28;20480;-74
2022/10/16 13:16:53;;;;;;;11.53;11.10;;;27.30;81.90;;;;;;4987778;28;20534;-73
2022/10/16 13:19:29;;;;;;;12.50;11.80;;;27.50;82.40;;;;;;4988237;28;20451;-73
2022/10/16 13:22:03;;;;;;;11.80;11.40;;;27.80;82.30;;;;;;4987803;28;20461;-74
2022/10/16 13:24:46;;;;;;;13.53;12.83;;;28.00;81.80;;;;;;4983919;28;20447;-74
2022/10/16 13:27:24;;;;;;;12.17;11.67;;;27.80;82.30;;;;;;4976891;28;20443;-74
2022/10/16 13:29:59;;;;;;;11.27;10.80;;;27.80;83.50;;;;;;4978593;28;20478;-74
2022/10/16 13:32:28;;;;;;;12.43;11.73;;;27.60;82.60;;;;;;4979477;28;20451;-74
2022/10/16 13:34:55;;;;;;;13.10;12.37;;;27.70;83.00;;;;;;4981241;28;20448;-74
2022/10/16 13:37:23;;;;;;;12.20;11.70;;;27.80;83.00;;;;;;4979746;28;20717;-74
2022/10/16 13:39:50;;;;;;;11.80;11.40;;;27.80;84.10;;;;;;4979590;28;20435;-74
2022/10/16 13:42:24;;;;;;;13.80;13.00;;;27.70;83.80;;;;;;4980373;28;20807;-74
2022/10/16 13:44:52;;;;;;;13.73;13.10;;;27.90;84.30;;;;;;4979672;28;20440;-74
2022/10/16 13:47:20;;;;;;;12.33;11.90;;;28.10;84.00;;;;;;4979762;28;20466;-74
2022/10/16 13:50:01;;;;;;;12.43;11.87;;;27.90;82.10;;;;;;4981177;28;20501;-74
2022/10/16 13:52:28;;;;;;;11.93;11.53;;;28.10;82.70;;;;;;4980809;28;20438;-74
2022/10/16 13:54:55;;;;;;;13.17;12.63;;;27.90;82.60;;;;;;4970629;28;20470;-74
2022/10/16 13:57:24;;;;;;;12.57;12.17;;;27.90;83.20;;;;;;4971399;28;20618;-74
2022/10/16 13:59:51;;;;;;;13.03;12.63;;;27.70;82.80;;;;;;4976554;28;20489;-73
2022/10/16 14:02:23;;;;;;;12.73;12.23;;;27.60;84.00;;;;;;4985132;28;20465;-74
2022/10/16 14:04:51;;;;;;;13.07;12.57;;;27.50;85.20;;;;;;4990904;28;20447;-73
2022/10/16 14:07:24;;;;;;;12.90;12.33;;;27.10;85.80;;;;;;4981322;28;20533;-74
2022/10/16 14:09:52;;;;;;;13.03;12.23;;;26.70;88.60;;;;;;4989986;28;20486;-73
2022/10/16 14:12:19;;;;;;;13.53;13.03;;;26.40;89.70;;;;;;4987161;28;20470;-73
2022/10/16 14:14:48;;;;;;;12.20;11.70;;;26.20;90.10;;;;;;4984693;28;20458;-73
2022/10/16 14:17:15;;;;;;;12.67;11.90;;;25.90;91.00;;;;;;4990258;28;20450;-73
2022/10/16 14:19:47;;;;;;;12.80;12.20;;;25.80;91.90;;;;;;4990749;28;20546;-74
2022/10/16 14:22:32;;;;;;;12.87;12.30;;;25.70;92.60;;;;;;4990886;28;20538;-73
2022/10/16 14:25:00;;;;;;;12.43;11.83;;;25.50;93.00;;;;;;4991270;28;20451;-74
2022/10/16 14:27:34;;;;;;;12.60;12.00;;;25.50;94.10;;;;;;4990969;28;20773;-74
2022/10/16 14:30:14;;;;;;;12.40;11.90;;;25.50;95.80;;;;;;4991027;28;20490;-74